Time;durP1;ratioP1;P1;durP2;ratioP2;P2;SDS_P1;SDS_P2;PMS_P1;PMS_P2;Temp;Humidity;BMP_temperature;BMP_pressure;BME280_temperature;BME280_humidity;BME280_pressure;Samples;Min_cycle;Max_cycle;Signal;HPM_P1;HPM_P2
2022/05/13 00:01:31;;;;;;;9.70;3.35;;;;;;;22.34;39.21;101485.84;4968127;28;20054;-82
2022/05/13 00:03:57;;;;;;;6.68;3.08;;;;;;;22.10;39.19;101451.88;4986892;28;20054;-82
2022/05/13 00:06:24;;;;;;;8.63;3.33;;;;;;;22.39;38.92;101478.81;4987169;28;20059;-80
2022/05/13 00:08:51;;;;;;;9.15;3.78;;;;;;;22.58;38.61;101508.97;4969620;28;20112;-82
2022/05/13 00:11:22;;;;;;;4.28;2.65;;;;;;;22.54;38.98;101513.09;4991050;28;20060;-83
2022/05/13 00:13:49;;;;;;;5.38;3.50;;;;;;;22.43;39.51;101508.19;4973269;28;20104;-81
2022/05/13 00:16:16;;;;;;;6.07;3.50;;;;;;;22.37;39.06;101496.28;4973053;28;20058;-82
2022/05/13 00:18:46;;;;;;;3.85;3.08;;;;;;;22.54;38.75;101513.94;4973215;28;20066;-83
2022/05/13 00:21:13;;;;;;;5.18;3.28;;;;;;;22.46;39.26;101507.81;4990360;28;20054;-82
2022/05/13 00:23:43;;;;;;;5.80;3.33;;;;;;;22.47;39.17;101523.00;4972992;28;20053;-81
2022/05/13 00:26:10;;;;;;;5.93;3.15;;;;;;;21.98;39.79;101451.53;4972951;28;20120;-82
2022/05/13 00:28:36;;;;;;;6.78;3.30;;;;;;;21.97;39.47;101464.22;4990448;28;20286;-83
2022/05/13 00:31:04;;;;;;;6.90;2.90;;;;;;;22.02;39.48;101473.63;4972642;28;20451;-83
2022/05/13 00:33:32;;;;;;;5.32;2.92;;;;;;;22.33;39.68;101528.31;4972947;28;20046;-83
2022/05/13 00:35:59;;;;;;;5.30;2.78;;;;;;;22.21;39.64;101513.59;4990013;28;20373;-82
2022/05/13 00:38:26;;;;;;;9.48;2.90;;;;;;;22.33;39.04;101516.63;4972764;28;20121;-83
2022/05/13 00:40:53;;;;;;;9.40;3.45;;;;;;;22.06;39.21;101483.00;4972760;28;20082;-83
2022/05/13 00:44:01;;;;;;;5.45;2.95;;;;;;;22.10;39.08;101495.13;4972505;28;20116;-81
2022/05/13 00:46:28;;;;;;;7.90;3.60;;;;;;;22.18;39.46;101527.47;4894243;29;20060;-83
2022/05/13 00:49:01;;;;;;;6.35;3.47;;;;;;;22.10;39.42;101516.75;4894835;29;20147;-82
2022/05/13 00:51:41;;;;;;;6.22;3.03;;;;;;;22.04;39.11;101498.59;4936978;28;20481;-81
2022/05/13 00:54:13;;;;;;;4.97;3.00;;;;;;;22.09;39.53;101505.13;4972736;28;20073;-83
2022/05/13 00:56:47;;;;;;;7.38;3.35;;;;;;;22.18;39.09;101525.59;4975956;28;20047;-81
2022/05/13 00:59:19;;;;;;;5.57;3.30;;;;;;;22.28;39.14;101525.34;4992847;28;20117;-82
2022/05/13 01:01:48;;;;;;;5.68;3.30;;;;;;;22.17;38.92;101506.88;4992295;28;20062;-82
2022/05/13 01:04:17;;;;;;;7.60;3.25;;;;;;;22.23;39.21;101522.34;4973085;28;20049;-82
2022/05/13 01:06:55;;;;;;;5.72;3.10;;;;;;;21.73;39.18;101446.47;4972953;28;20051;-82
2022/05/13 01:09:28;;;;;;;7.07;2.92;;;;;;;22.10;39.25;101523.00;4989867;28;20053;-82
2022/05/13 01:11:58;;;;;;;7.35;3.30;;;;;;;22.13;39.02;101525.31;4972498;28;20485;-82
2022/05/13 01:14:37;;;;;;;4.93;3.33;;;;;;;21.84;39.19;101482.13;4972315;28;20246;-82
2022/05/13 01:20:32;;;;;;;4.70;3.15;;;;;;;21.89;39.43;101504.84;4909515;29;20052;-82
2022/05/13 01:23:06;;;;;;;4.47;2.80;;;;;;;22.01;39.39;101521.44;4893815;29;20525;-83
2022/05/13 01:25:37;;;;;;;5.38;2.80;;;;;;;21.75;39.45;101473.31;4963558;28;20057;-82
2022/05/13 01:28:11;;;;;;;5.47;3.03;;;;;;;22.00;39.59;101521.66;4972658;28;20512;-81
2022/05/13 01:30:45;;;;;;;4.90;3.30;;;;;;;22.00;39.45;101524.34;4972554;28;20081;-80
2022/05/13 01:33:12;;;;;;;6.88;3.20;;;;;;;21.93;39.11;101508.88;4972434;28;20050;-81
2022/05/13 01:35:43;;;;;;;7.40;3.15;;;;;;;20.98;39.59;101369.22;4972109;28;20085;-82
2022/05/13 01:38:14;;;;;;;6.82;3.08;;;;;;;21.80;39.78;101514.13;4972346;28;20468;-82
2022/05/13 01:40:41;;;;;;;7.03;2.88;;;;;;;21.47;39.54;101448.84;4972747;28;20050;-82
2022/05/13 01:43:12;;;;;;;5.18;2.90;;;;;;;21.81;39.78;101515.78;4973750;28;20050;-82
2022/05/13 01:45:42;;;;;;;12.70;3.70;;;;;;;21.77;40.01;101511.78;4975380;28;20069;-83
2022/05/13 01:48:12;;;;;;;13.05;4.07;;;;;;;21.20;40.11;101423.31;4998457;28;20062;-83
2022/05/13 01:50:39;;;;;;;6.05;3.42;;;;;;;21.71;40.30;101523.34;5009165;28;20228;-83
2022/05/13 01:53:08;;;;;;;6.80;3.03;;;;;;;21.65;40.29;101508.72;4994038;28;20043;-83
2022/05/13 01:55:35;;;;;;;6.30;2.92;;;;;;;21.45;40.58;101484.13;4969417;28;20214;-83
2022/05/13 01:58:05;;;;;;;6.45;3.70;;;;;;;21.51;40.74;101502.31;4978583;28;20185;-82
2022/05/13 02:00:32;;;;;;;11.65;3.42;;;;;;;21.46;40.85;101503.91;4972511;28;20050;-82
2022/05/13 02:05:44;;;;;;;6.00;3.05;;;;;;;21.47;40.74;101508.25;4988751;28;20058;-82
2022/05/13 02:08:11;;;;;;;9.25;3.40;;;;;;;20.74;40.83;101385.69;4971756;28;20042;-82
2022/05/13 02:10:38;;;;;;;3.92;3.08;;;;;;;21.36;40.89;101482.53;4973046;28;20050;-81
2022/05/13 02:13:04;;;;;;;7.50;2.55;;;;;;;21.45;40.60;101511.13;4975839;28;20093;-82
2022/05/13 02:15:31;;;;;;;8.85;3.47;;;;;;;21.45;40.64;101513.00;4974750;28;20057;-82
2022/05/13 02:17:58;;;;;;;10.07;3.20;;;;;;;21.25;40.64;101483.00;4972539;28;20046;-81
2022/05/13 02:20:25;;;;;;;7.95;3.08;;;;;;;21.21;41.08;101473.56;4988972;28;20054;-80
2022/05/13 02:22:52;;;;;;;4.25;2.92;;;;;;;21.41;40.86;101514.41;4970799;28;20050;-82
2022/05/13 02:25:19;;;;;;;3.05;2.63;;;;;;;21.39;40.73;101511.91;4970622;28;20054;-83
2022/05/13 02:27:45;;;;;;;9.55;3.10;;;;;;;20.58;40.38;101379.41;4970079;28;20504;-82
2022/05/13 02:30:14;;;;;;;4.88;2.78;;;;;;;21.41;40.59;101509.84;4970804;28;20054;-82
2022/05/13 02:32:41;;;;;;;6.60;2.65;;;;;;;21.13;40.66;101463.69;4970550;28;20050;-82
2022/05/13 02:35:09;;;;;;;3.67;2.80;;;;;;;21.30;40.56;101489.50;4970346;28;20507;-82
2022/05/13 02:37:35;;;;;;;3.47;3.00;;;;;;;20.67;40.25;101389.09;4970573;28;20109;-82
2022/05/13 02:40:03;;;;;;;4.68;3.15;;;;;;;21.12;40.61;101468.28;4969966;28;20116;-82
2022/05/13 02:42:30;;;;;;;6.25;3.17;;;;;;;21.26;40.45;101498.16;4970368;28;20050;-82
2022/05/13 02:44:57;;;;;;;4.60;3.20;;;;;;;21.20;40.63;101505.16;4970287;28;20054;-83
2022/05/13 02:47:23;;;;;;;3.55;2.45;;;;;;;21.06;40.55;101477.09;4953989;28;20054;-82
2022/05/13 02:50:17;;;;;;;4.63;2.88;;;;;;;21.20;40.42;101517.81;4987992;28;20058;-80
2022/05/13 02:52:38;;;;;;;7.45;2.92;;;;;;;21.13;40.22;101504.19;4987219;28;20685;-80
2022/05/13 02:55:06;;;;;;;5.15;2.80;;;;;;;21.18;40.64;101517.97;4970353;28;20070;-81
2022/05/13 02:57:33;;;;;;;4.80;3.13;;;;;;;21.06;40.92;101504.09;4970417;28;20054;-82
2022/05/13 03:00:00;;;;;;;3.60;3.00;;;;;;;20.90;41.19;101496.16;4969676;28;20050;-82
2022/05/13 03:02:27;;;;;;;7.45;3.15;;;;;;;20.92;41.15;101507.59;4970096;28;20062;-82
2022/05/13 03:04:54;;;;;;;3.35;2.67;;;;;;;20.90;41.44;101517.75;4969919;28;20137;-82
2022/05/13 03:07:24;;;;;;;3.50;2.85;;;;;;;20.97;41.78;101524.09;4970996;28;20116;-82
2022/05/13 03:09:50;;;;;;;5.60;3.00;;;;;;;20.96;41.52;101522.41;4969848;28;20053;-82
2022/05/13 03:12:17;;;;;;;5.10;3.03;;;;;;;20.61;41.21;101457.28;4969734;28;20590;-82
2022/05/13 03:14:44;;;;;;;7.38;2.65;;;;;;;20.78;41.56;101495.75;4969532;28;20520;-83
2022/05/13 03:17:11;;;;;;;4.95;3.15;;;;;;;20.64;42.31;101508.19;4986845;28;20093;-82
2022/05/13 03:19:38;;;;;;;5.63;3.50;;;;;;;20.64;42.15;101502.78;4969909;28;20050;-82
2022/05/13 03:22:06;;;;;;;5.13;3.45;;;;;;;20.67;42.48;101513.19;4970083;28;20128;-81
2022/05/13 03:24:34;;;;;;;4.93;3.13;;;;;;;20.57;42.49;101501.00;4970097;28;20077;-82
2022/05/13 03:27:01;;;;;;;4.28;2.90;;;;;;;20.49;42.59;101493.78;4986953;28;20058;-83
2022/05/13 03:29:28;;;;;;;8.88;2.70;;;;;;;20.02;42.38;101419.25;4970036;28;20590;-81
2022/05/13 03:31:57;;;;;;;3.33;3.03;;;;;;;19.88;42.23;101418.19;4969979;28;20058;-82
2022/05/13 03:34:25;;;;;;;8.30;3.05;;;;;;;20.32;42.61;101484.97;4969505;28;20046;-81
2022/05/13 03:36:54;;;;;;;4.10;3.10;;;;;;;20.20;41.93;101448.66;4969376;28;20057;-82
2022/05/13 03:39:21;;;;;;;8.45;2.95;;;;;;;20.63;42.18;101525.41;4969575;28;20129;-82
2022/05/13 03:41:51;;;;;;;4.68;3.30;;;;;;;20.26;42.08;101462.22;4969844;28;20133;-81
2022/05/13 03:44:18;;;;;;;4.32;2.78;;;;;;;20.69;42.19;101524.66;4968969;28;20108;-82
2022/05/13 03:46:44;;;;;;;6.97;2.92;;;;;;;20.52;41.94;101496.09;4987426;28;20112;-82
2022/05/13 03:49:11;;;;;;;6.70;2.78;;;;;;;20.66;42.24;101516.94;4969859;28;20567;-82
2022/05/13 03:51:39;;;;;;;7.28;2.70;;;;;;;20.49;42.37;101493.78;4970827;28;20148;-82
2022/05/13 03:54:06;;;;;;;6.40;3.53;;;;;;;20.45;42.31;101487.06;4988731;28;20050;-83
2022/05/13 03:56:34;;;;;;;4.53;3.15;;;;;;;20.59;42.60;101515.97;4973572;28;20190;-81
2022/05/13 03:59:02;;;;;;;4.00;3.65;;;;;;;20.54;42.60;101525.59;4989286;28;20043;-83
2022/05/13 04:01:32;;;;;;;5.47;2.72;;;;;;;20.61;42.51;101532.00;4972142;28;20093;-83
2022/05/13 04:03:59;;;;;;;5.28;3.05;;;;;;;20.51;42.88;101518.72;4987728;28;20534;-83
2022/05/13 04:09:12;;;;;;;4.38;2.72;;;;;;;20.37;42.63;101508.69;4986532;28;20054;-83
2022/05/13 04:11:40;;;;;;;5.13;2.65;;;;;;;19.69;42.83;101403.31;4969491;28;20050;-83
2022/05/13 04:16:55;;;;;;;4.75;2.80;;;;;;;20.26;43.26;101508.06;4988590;28;20300;-83
2022/05/13 04:19:24;;;;;;;4.45;2.92;;;;;;;20.37;43.29;101535.66;4974931;28;20197;-83
2022/05/13 04:21:51;;;;;;;7.07;2.80;;;;;;;20.37;43.21;101538.34;4973235;28;20322;-82
2022/05/13 04:24:19;;;;;;;7.97;2.80;;;;;;;20.35;43.59;101540.38;4970314;28;20092;-82
2022/05/13 04:26:47;;;;;;;3.50;2.75;;;;;;;20.31;42.76;101525.56;4969045;28;20065;-83
2022/05/13 04:29:14;;;;;;;8.45;2.65;;;;;;;20.30;42.69;101518.50;4986649;28;20046;-82
2022/05/13 04:31:43;;;;;;;4.45;2.90;;;;;;;20.19;43.13;101501.69;4969279;28;20062;-84
2022/05/13 04:34:10;;;;;;;5.57;3.10;;;;;;;20.21;43.34;101501.53;4969121;28;20046;-83
2022/05/13 04:36:37;;;;;;;6.95;2.90;;;;;;;20.46;43.17;101551.59;4969468;28;20121;-83
2022/05/13 04:39:05;;;;;;;3.70;2.90;;;;;;;20.23;43.17;101497.63;4969470;28;20098;-81
2022/05/13 04:44:19;;;;;;;4.97;2.95;;;;;;;20.05;43.32;101478.22;4986528;28;20062;-83
2022/05/13 04:46:46;;;;;;;8.75;3.10;;;;;;;20.15;43.52;101499.56;4969016;28;20050;-83
2022/05/13 04:49:13;;;;;;;5.32;2.67;;;;;;;20.35;43.34;101518.81;4969045;28;20054;-81
2022/05/13 04:51:40;;;;;;;9.10;2.53;;;;;;;20.33;43.98;101518.16;4969300;28;20104;-83
2022/05/13 04:54:08;;;;;;;7.53;3.45;;;;;;;20.36;44.11;101536.66;4949984;28;20086;-83
2022/05/13 04:56:37;;;;;;;8.23;2.72;;;;;;;20.40;43.76;101536.13;4950766;28;20409;-82
2022/05/13 04:59:04;;;;;;;6.95;2.83;;;;;;;20.51;44.08;101559.16;4970105;28;20489;-83
2022/05/13 05:01:31;;;;;;;6.43;3.03;;;;;;;20.46;44.19;101545.34;4952696;28;20053;-83
2022/05/13 05:04:01;;;;;;;3.67;3.00;;;;;;;20.34;44.16;101531.47;4953327;28;20077;-83
2022/05/13 05:06:57;;;;;;;7.15;3.40;;;;;;;20.45;43.73;101557.16;4953638;28;20054;-82
2022/05/13 05:09:24;;;;;;;5.75;2.63;;;;;;;20.63;43.14;101552.38;4937533;28;20055;-82
2022/05/13 05:11:50;;;;;;;4.70;3.08;;;;;;;20.17;43.43;101479.50;4953047;28;20183;-81
2022/05/13 05:14:24;;;;;;;3.15;2.83;;;;;;;20.76;42.96;101559.03;4952050;28;20101;-82
2022/05/13 05:16:51;;;;;;;5.25;2.97;;;;;;;20.86;42.89;101573.09;4981948;28;20105;-81
2022/05/13 05:19:18;;;;;;;6.43;2.80;;;;;;;20.68;43.55;101528.38;4970990;28;20054;-82
2022/05/13 05:21:45;;;;;;;5.93;3.10;;;;;;;20.87;42.93;101550.47;4971337;28;20046;-82
2022/05/13 05:24:13;;;;;;;7.22;3.20;;;;;;;20.98;43.69;101566.25;4971442;28;20352;-81
2022/05/13 05:26:42;;;;;;;4.70;2.67;;;;;;;20.97;43.67;101559.19;4971099;28;20141;-82
2022/05/13 05:29:09;;;;;;;5.90;2.70;;;;;;;21.18;42.41;101563.88;4970573;28;20061;-83
2022/05/13 05:31:36;;;;;;;5.53;2.40;;;;;;;21.13;42.94;101564.44;4971214;28;20133;-83
2022/05/13 05:34:03;;;;;;;7.38;2.83;;;;;;;20.92;43.08;101534.59;4988290;28;20081;-81
2022/05/13 05:36:29;;;;;;;6.25;2.92;;;;;;;21.02;42.57;101545.13;4971099;28;20085;-82
2022/05/13 05:38:56;;;;;;;5.40;3.15;;;;;;;20.97;42.44;101525.94;4988145;28;20050;-82
2022/05/13 05:41:23;;;;;;;3.90;2.85;;;;;;;21.23;42.43;101566.88;4970485;28;20057;-80
2022/05/13 05:43:51;;;;;;;5.88;2.53;;;;;;;21.34;42.44;101587.22;4971048;28;20524;-81
2022/05/13 05:46:18;;;;;;;4.30;2.90;;;;;;;21.37;42.03;101573.31;4988616;28;20501;-82
2022/05/13 05:48:45;;;;;;;7.38;2.60;;;;;;;21.53;42.18;101592.13;4971350;28;20054;-82
2022/05/13 05:51:12;;;;;;;9.27;2.90;;;;;;;21.55;42.39;101590.06;4971337;28;20078;-83
2022/05/13 05:59:16;;;;;;;3.97;2.78;;;;;;;21.79;41.72;101580.00;4989741;28;20061;-81
2022/05/13 06:01:43;;;;;;;8.82;3.20;;;;;;;21.78;41.18;101586.44;4974214;28;20062;-82
2022/05/13 06:04:17;;;;;;;6.05;2.65;;;;;;;21.77;41.18;101565.81;4995664;28;20053;-82
2022/05/13 06:06:43;;;;;;;8.25;2.67;;;;;;;21.95;40.86;101590.63;4988123;28;20050;-83
2022/05/13 06:09:13;;;;;;;4.90;2.67;;;;;;;21.95;40.76;101577.09;4994353;28;20057;-83
2022/05/13 06:11:40;;;;;;;2.75;2.10;;;;;;;22.04;41.02;101582.41;4982440;28;20062;-82
2022/05/13 06:14:08;;;;;;;9.07;3.30;;;;;;;22.06;40.96;101591.16;4979056;28;20472;-83
2022/05/13 06:16:36;;;;;;;4.32;2.63;;;;;;;21.45;40.90;101470.63;4972976;28;20136;-81
2022/05/13 06:19:03;;;;;;;6.40;3.03;;;;;;;21.77;40.45;101506.38;4971478;28;20046;-81
2022/05/13 06:21:34;;;;;;;6.10;3.42;;;;;;;22.33;41.02;101597.78;4971712;28;20058;-82
2022/05/13 06:24:01;;;;;;;6.50;2.42;;;;;;;21.91;40.49;101529.00;4972310;28;20125;-82
2022/05/13 06:26:28;;;;;;;4.65;2.80;;;;;;;22.26;40.81;101578.78;4973347;28;20051;-82
2022/05/13 06:28:55;;;;;;;3.95;2.13;;;;;;;22.45;40.39;101595.41;4989206;28;20077;-82
2022/05/13 06:31:23;;;;;;;8.30;3.00;;;;;;;22.36;40.85;101578.47;4971832;28;20061;-82
2022/05/13 06:33:51;;;;;;;8.90;3.33;;;;;;;22.47;41.37;101588.78;4970451;28;20058;-82
2022/05/13 06:36:18;;;;;;;5.15;2.72;;;;;;;22.43;40.63;101571.28;4970260;28;20057;-83
2022/05/13 06:38:47;;;;;;;6.47;2.85;;;;;;;22.47;40.55;101571.72;4970657;28;20053;-82
2022/05/13 06:41:17;;;;;;;4.57;3.00;;;;;;;22.63;41.64;101593.13;4970307;28;20484;-83
2022/05/13 06:43:45;;;;;;;5.15;2.92;;;;;;;22.62;41.94;101596.84;4970107;28;20054;-82
2022/05/13 06:46:11;;;;;;;9.75;3.03;;;;;;;22.53;41.54;101576.38;4988147;28;20050;-83
2022/05/13 06:48:45;;;;;;;6.38;2.83;;;;;;;22.79;40.20;101597.44;4972403;28;20057;-82
2022/05/13 06:51:12;;;;;;;8.45;3.05;;;;;;;22.77;39.64;101577.88;4990824;28;20689;-82
2022/05/13 06:53:38;;;;;;;4.95;2.65;;;;;;;22.67;39.99;101561.94;4995567;28;20138;-83
2022/05/13 06:56:05;;;;;;;4.85;2.83;;;;;;;22.77;40.00;101577.88;4975961;28;20121;-82
2022/05/13 06:58:32;;;;;;;6.80;2.97;;;;;;;22.90;40.64;101596.94;4974313;28;20104;-83
2022/05/13 07:00:59;;;;;;;7.50;2.72;;;;;;;22.91;39.50;101573.41;4973900;28;20507;-81
2022/05/13 07:03:25;;;;;;;4.53;2.78;;;;;;;23.08;40.05;101601.91;4970108;28;20491;-82
2022/05/13 07:05:52;;;;;;;12.07;3.28;;;;;;;22.98;40.11;101586.00;4970017;28;20458;-83
2022/05/13 07:08:19;;;;;;;4.88;2.78;;;;;;;22.61;39.53;101520.25;4969996;28;20453;-83
2022/05/13 07:10:46;;;;;;;3.30;2.30;;;;;;;22.97;38.90;101572.63;4987597;28;20050;-83
2022/05/13 07:13:15;;;;;;;6.30;2.67;;;;;;;23.25;38.89;101608.75;4969721;28;20061;-82
2022/05/13 07:15:46;;;;;;;6.22;2.80;;;;;;;23.01;39.32;101576.63;4969724;28;20067;-82
2022/05/13 07:18:13;;;;;;;3.90;2.38;;;;;;;23.18;39.51;101607.84;4969609;28;20090;-82
2022/05/13 07:20:40;;;;;;;5.45;2.50;;;;;;;22.65;39.70;101514.44;4969090;28;20082;-82
2022/05/13 07:23:11;;;;;;;4.97;2.50;;;;;;;23.14;39.42;101576.78;4969781;28;20054;-83
2022/05/13 07:25:41;;;;;;;5.95;2.72;;;;;;;23.30;39.92;101601.88;4987684;28;20058;-82
2022/05/13 07:28:10;;;;;;;8.07;2.90;;;;;;;22.96;38.80;101541.16;4970401;28;20501;-81
2022/05/13 07:30:39;;;;;;;4.43;2.70;;;;;;;23.07;38.54;101561.50;4969940;28;20436;-81
2022/05/13 07:33:06;;;;;;;5.70;2.90;;;;;;;23.32;38.64;101578.16;4969364;28;20083;-82
2022/05/13 07:35:33;;;;;;;11.35;3.53;;;;;;;23.32;38.98;101595.22;4969696;28;20065;-82
2022/05/13 07:37:59;;;;;;;9.10;3.35;;;;;;;23.38;38.93;101589.03;4986845;28;20082;-82
2022/05/13 07:43:13;;;;;;;7.93;2.83;;;;;;;23.42;38.97;101592.19;4946822;28;20042;-80
2022/05/13 07:45:41;;;;;;;7.15;2.90;;;;;;;23.25;39.46;101565.41;4969947;28;20050;-83
2022/05/13 07:48:08;;;;;;;8.18;2.60;;;;;;;23.53;39.10;101593.53;4971673;28;20046;-83
2022/05/13 07:50:38;;;;;;;4.55;2.53;;;;;;;23.68;38.35;101591.53;4972659;28;20050;-82
2022/05/13 07:53:05;;;;;;;3.28;2.45;;;;;;;23.28;38.49;101526.25;4989165;28;20053;-83
2022/05/13 07:55:35;;;;;;;4.35;2.20;;;;;;;23.72;38.30;101597.41;4972149;28;20137;-82
2022/05/13 07:58:02;;;;;;;6.78;2.80;;;;;;;23.79;38.83;101590.19;4971676;28;20097;-82
2022/05/13 08:00:32;;;;;;;10.07;3.05;;;;;;;23.52;39.25;101552.03;4989960;28;20272;-81
2022/05/13 08:03:00;;;;;;;5.85;2.17;;;;;;;23.89;38.63;101588.78;4972861;28;20085;-82
2022/05/13 08:05:31;;;;;;;5.22;2.90;;;;;;;23.91;38.55;101575.03;4989124;28;20078;-81
2022/05/13 08:08:07;;;;;;;9.77;2.95;;;;;;;24.06;37.81;101562.16;4971883;28;20061;-81
2022/05/13 08:10:35;;;;;;;5.75;2.63;;;;;;;24.01;37.16;101585.50;4972090;28;20057;-81
2022/05/13 08:13:02;;;;;;;8.18;2.67;;;;;;;24.07;37.19;101585.50;4971830;28;20077;-82
2022/05/13 08:15:30;;;;;;;5.55;2.70;;;;;;;24.01;37.21;101594.47;4971754;28;20109;-81
2022/05/13 08:17:57;;;;;;;7.18;2.45;;;;;;;23.25;37.04;101475.16;4971326;28;20050;-82
2022/05/13 08:20:24;;;;;;;6.40;2.70;;;;;;;23.98;36.52;101570.47;4971604;28;20046;-83
2022/05/13 08:22:51;;;;;;;3.45;2.35;;;;;;;23.93;36.69;101553.94;4972000;28;20436;-81
2022/05/13 08:25:18;;;;;;;9.50;2.80;;;;;;;23.89;37.72;101547.25;4971793;28;20514;-81
2022/05/13 08:27:45;;;;;;;5.07;2.60;;;;;;;24.17;37.79;101587.00;4990468;28;20050;-82
2022/05/13 08:30:13;;;;;;;6.43;2.83;;;;;;;23.84;37.54;101530.75;4978560;28;20053;-82
2022/05/13 08:32:43;;;;;;;4.38;2.83;;;;;;;24.26;37.87;101577.66;4980665;28;20062;-81
2022/05/13 08:35:12;;;;;;;6.03;2.92;;;;;;;24.31;37.81;101572.47;4974779;28;20468;-82
2022/05/13 08:37:47;;;;;;;11.43;3.03;;;;;;;24.52;37.83;101576.94;4975489;28;20132;-81
2022/05/13 08:40:55;;;;;;;8.23;3.05;;;;;;;24.62;37.37;101581.97;4975481;28;20054;-83
2022/05/13 08:44:10;;;;;;;4.85;2.50;;;;;;;23.79;38.10;101419.38;4975146;28;20054;-83
2022/05/13 08:46:40;;;;;;;8.85;3.33;;;;;;;24.81;37.54;101567.59;4975476;28;20340;-79
2022/05/13 08:49:47;;;;;;;8.88;3.30;;;;;;;24.54;36.92;101528.72;4993089;28;20267;-82
2022/05/13 08:55:19;;;;;;;6.60;2.75;;;;;;;24.59;36.87;101498.22;4991690;28;20500;-82
2022/05/13 08:57:49;;;;;;;7.90;2.90;;;;;;;25.12;37.03;101550.69;4974694;28;20054;-81
2022/05/13 09:00:52;;;;;;;6.03;2.72;;;;;;;25.16;37.15;101542.94;4974680;28;20053;-82
2022/05/13 09:03:28;;;;;;;7.32;2.95;;;;;;;25.19;37.29;101547.13;4958069;28;20105;-82
2022/05/13 09:06:06;;;;;;;4.13;2.67;;;;;;;24.55;37.01;101434.56;4974769;28;20062;-81
2022/05/13 09:08:42;;;;;;;7.40;3.25;;;;;;;25.25;37.12;101555.28;4975182;28;20105;-82
2022/05/13 09:11:31;;;;;;;8.43;3.35;;;;;;;24.50;35.60;101432.47;4991599;28;20367;-82
2022/05/13 09:14:18;;;;;;;5.40;2.40;;;;;;;25.22;36.40;101550.28;4991263;28;20058;-82
2022/05/13 09:17:08;;;;;;;7.13;2.55;;;;;;;25.31;36.16;101538.13;4973390;28;20074;-81
2022/05/13 09:19:51;;;;;;;12.25;3.13;;;;;;;25.44;36.23;101555.47;4991429;28;20096;-83
2022/05/13 09:22:18;;;;;;;6.25;2.67;;;;;;;25.06;35.76;101464.56;4973659;28;20101;-82
2022/05/13 09:24:46;;;;;;;8.82;3.17;;;;;;;25.56;35.90;101549.19;4973560;28;20693;-81
2022/05/13 09:27:48;;;;;;;5.72;2.70;;;;;;;25.47;37.12;101533.31;4990586;28;20082;-82
2022/05/13 09:30:33;;;;;;;10.73;2.85;;;;;;;25.58;37.28;101517.19;4973651;28;20056;-81
2022/05/13 09:33:22;;;;;;;9.45;2.70;;;;;;;26.05;36.71;101555.09;4973735;28;20125;-81
2022/05/13 09:35:54;;;;;;;4.85;2.80;;;;;;;26.24;36.52;101547.91;4990843;28;20054;-83
2022/05/13 09:38:29;;;;;;;5.07;2.55;;;;;;;26.28;35.96;101513.75;4990505;28;20066;-82
2022/05/13 09:40:56;;;;;;;8.10;2.75;;;;;;;26.33;35.89;101530.25;4973732;28;20465;-82
2022/05/13 09:43:43;;;;;;;6.30;3.17;;;;;;;26.35;35.55;101540.91;4973791;28;20081;-81
2022/05/13 09:46:30;;;;;;;5.40;3.10;;;;;;;26.43;36.10;101529.75;4974809;28;20042;-81
2022/05/13 09:49:07;;;;;;;4.57;2.92;;;;;;;26.60;35.60;101544.56;4974443;28;20050;-83
2022/05/13 09:51:57;;;;;;;8.93;2.65;;;;;;;26.82;35.72;101538.72;4991097;28;20491;-82
2022/05/13 09:54:33;;;;;;;9.13;2.85;;;;;;;26.95;35.15;101546.81;4955152;28;20134;-82
2022/05/13 09:57:10;;;;;;;5.57;2.92;;;;;;;26.94;35.04;101538.84;4954444;28;20046;-81
2022/05/13 09:59:44;;;;;;;5.65;3.00;;;;;;;27.13;34.98;101518.75;4954820;28;20069;-81
2022/05/13 10:02:19;;;;;;;18.42;3.38;;;;;;;27.48;34.74;101538.16;4953625;28;20353;-82
2022/05/13 10:04:53;;;;;;;11.85;3.22;;;;;;;27.30;34.20;101499.97;4953480;28;20137;-83
2022/05/13 10:07:24;;;;;;;4.72;2.67;;;;;;;27.38;34.66;101504.28;4954500;28;20061;-81
2022/05/13 10:15:42;;;;;;;5.00;2.67;;;;;;;28.23;33.45;101517.97;4981078;28;20121;-83
2022/05/13 10:18:31;;;;;;;5.78;2.72;;;;;;;28.19;33.79;101516.75;4960770;28;20045;-81
2022/05/13 10:21:05;;;;;;;7.57;2.80;;;;;;;28.24;33.50;101513.31;4960012;28;20097;-82
2022/05/13 10:23:40;;;;;;;8.40;2.63;;;;;;;28.30;34.28;101506.91;4974815;28;20511;-83
2022/05/13 10:26:11;;;;;;;6.85;2.92;;;;;;;28.46;33.24;101481.72;4954206;28;20141;-82
2022/05/13 10:28:52;;;;;;;6.18;3.15;;;;;;;28.44;32.95;101463.88;4953518;28;20046;-82
2022/05/13 10:31:22;;;;;;;4.10;2.95;;;;;;;28.65;33.02;101511.69;4938742;28;20054;-83
2022/05/13 10:34:06;;;;;;;7.28;3.00;;;;;;;28.02;32.63;101425.66;4954088;28;20047;-83
2022/05/13 10:36:46;;;;;;;8.48;2.58;;;;;;;27.98;32.90;101370.72;4956872;28;20054;-83
2022/05/13 10:39:43;;;;;;;8.15;3.10;;;;;;;28.85;32.77;101493.03;4976370;28;20145;-83
2022/05/13 10:42:18;;;;;;;10.27;3.33;;;;;;;28.76;33.00;101473.47;4971088;28;20059;-84
2022/05/13 10:45:07;;;;;;;11.18;3.65;;;;;;;29.21;33.12;101502.13;4952408;28;20076;-82
2022/05/13 10:47:55;;;;;;;11.90;3.55;;;;;;;29.42;32.19;101488.88;4952792;28;20050;-83
2022/05/13 10:50:51;;;;;;;5.93;3.15;;;;;;;29.48;32.42;101483.28;4953177;28;20067;-81
2022/05/13 10:53:28;;;;;;;7.85;3.17;;;;;;;29.18;31.75;101376.84;4962654;28;20432;-83
2022/05/13 10:56:12;;;;;;;7.63;2.90;;;;;;;29.88;31.98;101490.72;4968685;28;20583;-83
2022/05/13 10:58:42;;;;;;;10.25;3.05;;;;;;;29.88;31.85;101490.72;4968501;28;20050;-82
2022/05/13 11:01:31;;;;;;;6.28;2.80;;;;;;;29.92;31.40;101489.13;4968879;28;20051;-83
2022/05/13 11:04:10;;;;;;;6.10;3.22;;;;;;;29.44;32.12;101412.88;4952669;28;20406;-83
2022/05/13 11:06:57;;;;;;;5.53;2.95;;;;;;;28.72;31.97;101281.03;4969825;28;20047;-83
2022/05/13 11:09:49;;;;;;;4.88;2.92;;;;;;;30.07;31.53;101476.81;4952330;28;20449;-82
2022/05/13 11:12:41;;;;;;;6.90;2.67;;;;;;;29.35;31.39;101331.25;4968245;28;20105;-83
2022/05/13 11:15:26;;;;;;;6.13;2.72;;;;;;;29.38;31.54;101294.38;4968329;28;20070;-83
2022/05/13 11:18:37;;;;;;;;;;;;;;;30.65;30.66;101478.38;4968951;28;20706;-82
2022/05/13 11:21:18;;;;;;;4.78;2.85;;;;;;;30.80;30.95;101470.44;4969193;28;19922;-83
2022/05/13 11:26:42;;;;;;;;;;;;;;;30.87;30.47;101459.28;4969693;28;20391;-82
2022/05/13 11:29:14;;;;;;;;;;;;;;;31.01;30.46;101468.00;4968814;28;19922;-83
2022/05/13 11:32:03;;;;;;;10.93;2.92;;;;;;;30.87;30.36;101423.66;4968530;28;19930;-83
2022/05/13 11:35:02;;;;;;;10.52;2.78;;;;;;;31.25;30.62;101444.75;4968334;28;20419;-82
2022/05/13 11:37:33;;;;;;;6.57;2.55;;;;;;;31.38;30.93;101446.28;4968296;28;20055;-82
2022/05/13 11:40:06;;;;;;;5.68;3.15;;;;;;;31.61;30.35;101442.47;4968366;28;20476;-82
2022/05/13 11:43:18;;;;;;;4.22;2.33;;;;;;;31.49;30.55;101381.44;4968012;28;20053;-82
2022/05/13 11:46:14;;;;;;;2.95;2.58;;;;;;;32.19;29.78;101433.75;4969274;28;20421;-82
2022/05/13 11:48:46;;;;;;;7.35;3.30;;;;;;;32.13;29.28;101410.91;4952322;28;20051;-84
2022/05/13 11:51:28;;;;;;;4.90;2.42;;;;;;;32.17;29.72;101416.72;4969733;28;20057;-82
2022/05/13 11:54:01;;;;;;;5.97;2.58;;;;;;;32.39;29.64;101422.13;4986675;28;20483;-83
2022/05/13 11:56:30;;;;;;;7.32;3.03;;;;;;;32.35;29.40;101413.56;4987100;28;20058;-82
2022/05/13 11:59:03;;;;;;;6.35;3.03;;;;;;;32.41;29.41;101415.28;4988473;28;20064;-82
2022/05/13 12:01:36;;;;;;;7.47;2.92;;;;;;;32.11;30.01;101359.00;4987181;28;20074;-83
2022/05/13 12:04:17;;;;;;;6.53;2.78;;;;;;;31.78;29.60;101285.94;4987811;28;20049;-84
2022/05/13 12:06:50;;;;;;;3.40;2.85;;;;;;;32.64;29.28;101411.31;4990582;28;20414;-83
2022/05/13 12:09:45;;;;;;;7.80;2.90;;;;;;;32.92;28.79;101401.88;5008536;28;20050;-83
2022/05/13 12:12:36;;;;;;;5.60;2.70;;;;;;;32.23;28.63;101256.34;4992374;28;20639;-82
2022/05/13 12:15:45;;;;;;;3.08;2.78;;;;;;;33.48;28.18;101393.06;4990660;28;20065;-83
2022/05/13 12:18:40;;;;;;;5.90;2.85;;;;;;;33.58;28.48;101397.78;4992414;28;20507;-82
2022/05/13 12:21:26;;;;;;;4.35;2.25;;;;;;;33.68;27.73;101386.78;4991264;28;20068;-83
2022/05/13 12:23:58;;;;;;;7.60;2.85;;;;;;;33.00;27.88;101250.09;5008462;28;20053;-82